Latest Weather Observations for Mawson*

IDT60801

Issued at 4:02 pm EST Thursday 17 August 2017 (issued every 30 minutes, with the page automatically refreshed every 10 minutes)

About weather observations | Map of weather stations | Latest weather observations for ANT | Other Formats
Station Details ID: 300001 Name: MAWSON Lat: -67.60 Lon: 62.88 Height: 9.9 m
Data from the previous 72 hours. | See also: Recent months at Mawson*
Date/Time
EST
Temp
°C
App
Temp
°C
Dew
Point
°C
Rel
Hum
%
Delta-T
°C
Wind Press
QNH
hPa
Press
MSL
hPa
Rain since
9am
mm
Dir  Spd
km/h
Gust
km/h
Spd
kts
Gust
kts
17/04:00pm -17.2 -37.3 -20.4 76 - SSE 87 102 47 55 968.4 - -
17/03:34pm -17.2 -36.9 -20.0 79 - SSE 85 104 46 56 968.7 - -
17/03:30pm -16.9 -36.6 -19.7 79 - SSE 85 100 46 54 969.1 - -
17/03:07pm -17.1 -37.2 -19.9 79 - SSE 87 106 47 57 968.5 - -
17/03:00pm -17.4 -37.9 -19.9 81 - SSE 89 104 48 56 968.6 - -
17/02:30pm -17.2 -38.1 -19.5 82 - SSE 91 107 49 58 968.6 - -
17/02:01pm -17.6 -40.2 -19.6 84 - SSE 100 119 54 64 967.7 - -
17/02:00pm -17.6 -40.2 -19.6 84 - SSE 100 115 54 62 967.9 - -
17/01:32pm -17.5 -39.3 -19.4 85 - SSE 96 115 52 62 968.4 - -
17/01:30pm -17.5 -39.7 -19.4 85 - SSE 98 115 53 62 968.2 - -
17/01:00pm -16.6 -37.4 -18.9 82 - SSE 91 115 49 62 968.2 968.3 -
17/12:30pm -15.7 -37.9 -18.8 77 - SSE 98 117 53 63 967.9 - -
17/12:00pm -14.1 -35.3 -17.7 74 - SSE 93 117 50 63 967.7 - -
17/11:30am -14.1 -35.8 -17.1 78 - SE 96 119 52 64 967.2 - -
17/11:00am -13.8 -35.9 -16.9 77 - SE 98 120 53 65 967.6 - -
17/10:30am -13.4 -35.4 -15.9 81 - SE 98 122 53 66 967.6 - -
17/10:00am -13.6 -37.1 -15.6 85 - SE 106 130 57 70 967.2 967.4 -
17/09:30am -14.1 -37.6 -15.6 88 - SE 106 126 57 68 966.3 - -
17/09:00am -14.7 -39.2 -16.1 89 - SE 111 141 60 76 967.1 - -
17/08:30am -14.4 -39.3 -15.7 90 - SE 113 141 61 76 967.1 - -
17/08:00am -14.3 -38.4 -15.6 90 - SE 109 137 59 74 968.2 - -
17/07:30am -14.4 -39.3 -15.7 90 - SE 113 141 61 76 968.5 - -
17/07:00am -13.9 -37.4 -15.0 91 - SE 106 133 57 72 968.7 968.8 -
17/06:30am -14.3 -38.4 -15.4 91 - SE 109 137 59 74 968.4 - -
17/06:00am -14.7 -39.2 -16.0 90 - SE 111 137 60 74 969.4 - -
17/05:31am -15.5 -39.7 -16.8 90 - SE 109 128 59 69 970.1 - -
17/05:30am -15.2 -39.4 -16.5 90 - SE 109 126 59 68 970.4 - -
17/05:00am -15.5 -41.2 -16.8 90 - SE 117 139 63 75 970.8 - -
17/04:30am -15.7 -40.3 -17.0 90 - SE 111 137 60 74 971.1 - -
17/04:18am -15.7 -40.6 -17.1 89 - SE 113 148 61 80 971.9 - -
17/04:00am -15.7 -39.3 -17.1 89 - SE 106 124 57 67 972.6 972.7 -
17/03:30am -15.8 -39.4 -17.2 89 - SE 106 126 57 68 973.2 - -
17/03:14am -15.7 -39.3 -17.1 89 - SE 106 124 57 67 973.5 - -
17/03:00am -15.9 -40.1 -17.3 89 - SE 109 122 59 66 973.5 - -
17/02:49am -16.0 -39.8 -17.4 89 - SE 107 126 58 68 973.9 - -
17/02:30am -15.8 -39.4 -17.2 89 - SE 106 120 57 65 974.7 - -
17/02:12am -15.7 -39.3 -17.1 89 - ESE 106 126 57 68 975.0 - -
17/02:00am -15.8 -39.0 -17.2 89 - SE 104 120 56 65 975.3 - -
17/01:30am -15.9 -39.7 -17.3 89 - SE 107 126 58 68 975.7 - -
17/01:03am -15.9 -39.7 -17.3 89 - SE 107 126 58 68 976.2 - -
17/01:00am -16.1 -40.3 -17.5 89 - SE 109 126 59 68 976.5 976.6 -
17/12:30am -16.5 -40.7 -18.0 88 - SE 109 124 59 67 977.2 - -
17/12:04am -16.4 -40.2 -17.9 88 - ESE 107 126 58 68 977.7 - -
17/12:00am -16.3 -39.6 -17.8 88 - ESE 104 120 56 65 977.8 - -
 
Date/Time
EST
Temp
°C
App
Temp
°C
Dew
Point
°C
Rel
Hum
%
Delta-T
°C
Wind Press
QNH
hPa
Press
MSL
hPa
Rain since
9am
mm
Dir  Spd
km/h
Gust
km/h
Spd
kts
Gust
kts
16/11:35pm -16.6 -39.5 -18.1 88 - ESE 102 122 55 66 978.9 - -
16/11:30pm -16.5 -39.0 -18.0 88 - ESE 100 117 54 63 979.3 - -
16/11:29pm -16.6 -39.1 -18.1 88 - ESE 100 115 54 62 979.4 - -
16/11:00pm -16.2 -36.2 -17.7 88 - SE 87 98 47 53 981.4 - -
16/10:30pm -16.1 -35.4 -17.6 88 - SE 83 95 45 51 982.8 - -
16/10:01pm -16.4 -34.3 -18.0 87 - SE 76 98 41 53 983.6 - -
16/10:00pm -16.3 -34.2 -17.9 87 - SE 76 91 41 49 983.7 983.9 -
16/09:35pm -16.3 -34.3 -18.2 85 - SE 76 95 41 51 984.9 - -
16/09:30pm -16.2 -33.0 -18.1 85 - SE 70 85 38 46 985.0 - -
16/09:23pm -16.3 -32.2 -18.5 83 - SE 65 83 35 45 985.6 - -
16/09:00pm -16.2 -32.4 -18.1 85 - SE 67 78 36 42 986.0 - -
16/08:55pm -16.1 -32.3 -18.0 85 - SE 67 74 36 40 985.9 - -
16/08:43pm -16.1 -36.1 -18.0 85 - SE 87 95 47 51 985.5 - -
16/08:41pm -16.3 -32.2 -18.2 85 - ESE 65 96 35 52 985.8 - -
16/08:40pm -16.3 -31.4 -18.2 85 - ESE 61 74 33 40 986.0 - -
16/08:30pm -16.2 -35.5 -18.1 85 - SE 83 95 45 51 985.8 - -
16/08:27pm -16.2 -36.2 -18.0 86 - SE 87 95 47 51 985.7 - -
16/08:20pm -16.1 -32.3 -17.9 86 - ESE 67 87 36 47 985.8 - -
16/08:00pm -16.4 -34.4 -19.0 80 - SE 76 89 41 48 986.4 - -
16/07:30pm -16.0 -32.7 -18.9 78 - ESE 69 82 37 44 986.9 - -
16/07:18pm -15.7 -34.1 -18.6 78 - ESE 78 83 42 45 986.9 - -
16/07:02pm -15.2 -29.9 -18.0 79 - ESE 59 78 32 42 987.4 - -
16/07:00pm -15.2 -29.9 -18.0 79 - ESE 59 72 32 39 987.4 987.6 -
16/06:47pm -15.4 -30.5 -18.0 80 - ESE 61 80 33 43 987.5 - -
16/06:30pm -15.2 -30.7 -18.9 73 - ESE 63 76 34 41 988.0 - -
16/06:00pm -14.8 -29.6 -18.9 71 - SE 59 82 32 44 988.7 - -
16/05:30pm -14.9 -30.1 -19.8 66 - SE 61 70 33 38 989.4 - -
16/05:00pm -14.8 -30.7 -19.2 69 - SE 65 78 35 42 989.3 - -
16/04:30pm -13.9 -29.0 -19.2 64 - SE 61 69 33 37 989.5 - -
16/04:00pm -13.9 -28.3 -19.8 61 - SE 57 67 31 36 989.9 990.1 -
16/03:30pm -14.1 -28.3 -19.8 62 - SE 56 61 30 33 990.1 - -
16/03:00pm -13.0 -26.9 -20.3 54 - SE 54 63 29 34 990.1 - -
16/02:30pm -13.4 -27.2 -19.5 60 - SE 54 63 29 34 990.1 - -
16/02:00pm -13.2 -27.9 -18.7 63 - SE 59 67 32 36 989.9 - -
16/01:30pm -13.0 -26.8 -19.7 57 - SE 54 65 29 35 990.2 - -
16/01:00pm -13.0 -28.2 -19.9 56 - SE 61 70 33 38 990.1 990.3 -
16/12:30pm -13.0 -27.8 -19.5 58 - SE 59 70 32 38 990.1 - -
16/12:00pm -13.4 -27.8 -20.1 57 - SE 57 69 31 37 990.3 - -
16/11:30am -13.5 -27.7 -18.8 64 - SE 56 63 30 34 990.2 - -
16/11:00am -14.1 -28.5 -19.4 64 - SE 57 65 31 35 990.0 - -
16/10:30am -14.1 -28.9 -20.0 61 - SE 59 69 32 37 990.3 - -
16/10:00am -13.6 -28.7 -18.7 65 - SE 61 69 33 37 989.7 989.9 -
16/09:30am -13.5 -29.4 -19.4 61 - SE 65 78 35 42 989.5 - -
16/09:00am -13.2 -29.5 -19.1 61 - SE 67 74 36 40 989.0 - -
16/08:30am -13.0 -28.9 -19.9 56 - SE 65 74 35 40 989.0 - -
16/08:00am -13.2 -28.8 -20.1 56 - ESE 63 72 34 39 989.0 - -
16/07:30am -13.7 -29.6 -20.4 57 - SE 65 72 35 39 988.8 - -
16/07:00am -13.4 -28.2 -19.5 60 - SE 59 69 32 37 988.6 988.8 -
16/06:30am -13.9 -27.7 -19.8 61 - SE 54 63 29 34 988.7 - -
16/06:00am -13.3 -27.5 -19.8 58 - SE 56 63 30 34 988.5 - -
16/05:30am -13.2 -27.6 -19.5 59 - SE 57 67 31 36 988.1 - -
16/05:00am -13.2 -25.6 -21.4 50 - SE 46 57 25 31 988.2 - -
16/04:30am -14.8 -30.0 -20.8 60 - SE 61 67 33 36 987.5 - -
16/04:17am -14.0 -29.2 -21.5 53 - SE 61 63 33 34 987.3 - -
16/04:14am -13.7 -25.1 -21.0 54 - SE 41 59 22 32 987.3 - -
16/04:00am -14.1 -27.2 -21.8 52 - ESE 50 63 27 34 987.4 987.6 -
16/03:30am -14.5 -28.0 -20.5 60 - SE 52 61 28 33 986.8 - -
16/03:00am -14.0 -27.5 -21.3 54 - SE 52 59 28 32 986.4 - -
16/02:30am -14.0 -28.3 -20.8 56 - SE 56 65 30 35 986.0 - -
16/02:21am -14.8 -24.7 -21.8 55 - SE 33 52 18 28 986.2 - -
16/02:00am -14.0 -27.1 -21.7 52 - ESE 50 59 27 32 986.1 - -
16/01:30am -13.6 -26.4 -21.8 50 - SE 48 59 26 32 985.8 - -
16/01:12am -13.4 -25.8 -21.1 52 - ESE 46 56 25 30 985.9 - -
16/01:09am -13.6 -25.4 -21.5 51 - SSE 43 61 23 33 985.9 - -
16/01:00am -13.9 -25.0 -22.5 48 - SSE 39 48 21 26 985.9 986.1 -
16/12:47am -14.0 -23.8 -23.1 46 - SSE 32 35 17 19 986.2 - -
16/12:45am -13.3 -24.0 -22.7 45 - SE 37 56 20 30 986.2 - -
16/12:30am -13.6 -26.4 -22.5 47 - ESE 48 56 26 30 985.9 - -
16/12:00am -13.1 -25.1 -21.8 48 - ESE 44 52 24 28 985.6 - -
 
Date/Time
EST
Temp
°C
App
Temp
°C
Dew
Point
°C
Rel
Hum
%
Delta-T
°C
Wind Press
QNH
hPa
Press
MSL
hPa
Rain since
9am
mm
Dir  Spd
km/h
Gust
km/h
Spd
kts
Gust
kts
15/11:30pm -13.5 -22.8 -21.4 51 - SE 30 37 16 20 985.4 - -
15/11:00pm -15.2 -28.0 -22.0 56 - SE 48 54 26 29 985.0 - -
15/10:30pm -14.3 -26.7 -21.7 53 - SE 46 52 25 28 984.6 - -
15/10:00pm -14.0 -26.4 -21.7 52 - SE 46 52 25 28 984.3 984.5 -
15/09:30pm -14.2 -26.9 -21.2 55 - SE 48 57 26 31 984.0 - -
15/09:00pm -13.8 -26.9 -20.7 56 - SE 50 57 27 31 983.5 - -
15/08:30pm -13.2 -24.2 -21.6 49 - SE 39 54 21 29 983.3 - -
15/08:00pm -13.5 -26.6 -20.8 54 - SE 50 59 27 32 982.9 - -
15/07:30pm -13.4 -26.5 -20.3 56 - SE 50 59 27 32 982.8 - -
15/07:00pm -13.2 -25.5 -20.5 54 - SE 46 56 25 30 982.5 982.7 -
15/06:30pm -13.4 -25.4 -20.3 56 - SE 44 54 24 29 982.2 - -
15/06:00pm -13.7 -27.9 -19.8 60 - SE 56 61 30 33 981.7 - -
15/05:30pm -13.9 -27.0 -19.8 61 - SE 50 59 27 32 981.5 - -
15/05:00pm -14.6 -29.0 -19.5 66 - SE 57 69 31 37 981.0 - -
15/04:30pm -15.3 -30.9 -20.0 67 - SE 63 69 34 37 980.8 - -
15/04:00pm -15.2 -30.4 -19.4 70 - SE 61 69 33 37 980.3 980.5 -
15/03:30pm -15.5 -31.0 -19.7 70 - SE 63 72 34 39 979.7 - -
15/03:00pm -15.4 -31.3 -19.3 72 - SE 65 72 35 39 979.4 - -
15/02:30pm -15.9 -31.8 -19.3 75 - SE 65 72 35 39 979.2 - -
15/02:00pm -15.8 -32.1 -18.6 79 - SE 67 76 36 41 978.7 - -
15/01:30pm -16.1 -31.6 -18.4 82 - SE 63 72 34 39 978.4 - -
15/01:00pm -16.2 -33.4 -18.1 85 - SE 72 83 39 45 977.7 977.8 -
15/12:46pm -15.9 -31.4 -18.4 81 - SE 63 83 34 45 977.5 - -
15/12:30pm -15.9 -31.8 -18.5 80 - SE 65 74 35 40 977.8 - -
15/12:00pm -15.8 -31.3 -18.7 78 - SE 63 74 34 40 977.6 - -
15/11:30am -16.3 -31.8 -18.9 80 - SE 63 72 34 39 977.3 - -
15/11:00am -16.3 -30.7 -20.5 70 - SE 57 69 31 37 977.5 - -
15/10:30am -15.3 -29.7 -20.0 67 - SE 57 70 31 38 977.3 - -
15/10:13am -16.0 -29.5 -20.0 71 - SE 52 72 28 39 977.1 - -
15/10:00am -15.9 -30.7 -19.9 71 - SE 59 69 32 37 977.0 977.1 -
15/09:30am -16.1 -32.4 -19.8 73 - SE 67 76 36 41 976.4 - -
15/09:00am -15.7 -32.4 -19.6 72 - SE 69 76 37 41 975.8 - -
15/08:30am -15.4 -31.0 -20.6 64 - SE 63 76 34 41 975.7 - -
15/08:00am -15.2 -30.4 -21.8 57 - SE 61 72 33 39 975.7 - -
15/07:30am -15.2 -30.8 -20.8 62 - SE 63 76 34 41 975.7 - -
15/07:00am -15.9 -31.1 -20.3 69 - SE 61 72 33 39 976.0 976.1 -
15/06:30am -17.2 -33.9 -20.7 74 - SE 69 80 37 43 975.8 - -
15/06:00am -16.4 -31.2 -21.1 67 - SE 59 70 32 38 976.1 - -
15/05:30am -15.4 -28.6 -22.4 55 - SE 50 61 27 33 976.0 - -
15/05:00am -15.8 -27.3 -23.4 52 - SE 41 52 22 28 976.2 - -
15/04:54am -15.8 -27.9 -23.4 52 - SE 44 63 24 34 976.4 - -
15/04:30am -16.0 -29.5 -22.3 58 - SE 52 61 28 33 976.1 - -
15/04:00am -16.3 -29.1 -23.0 56 - SE 48 57 26 31 976.1 976.2 -
15/03:30am -17.1 -29.5 -23.8 56 - SSE 46 56 25 30 975.7 - -
15/03:15am -17.7 -28.1 -24.5 55 - SSE 35 54 19 29 976.0 - -
15/03:00am -15.9 -28.3 -23.9 50 - SE 46 59 25 32 976.4 - -
15/02:33am -16.5 -28.0 -23.4 55 - SE 41 59 22 32 976.1 - -
15/02:30am -16.0 -27.1 -24.2 49 - SE 39 50 21 27 976.3 - -
15/02:24am -16.2 -28.2 -23.3 54 - SE 44 50 24 27 976.2 - -
15/02:00am -17.4 -33.4 -21.4 71 - SE 65 72 35 39 975.8 - -
15/01:38am -16.9 -31.4 -22.4 62 - SE 57 69 31 37 976.0 - -
15/01:33am -16.8 -27.5 -22.5 61 - SE 37 59 20 32 976.3 - -
15/01:30am -17.8 -28.9 -24.2 57 - SE 39 52 21 28 976.5 - -
15/01:20am -16.8 -29.2 -23.1 58 - SE 46 48 25 26 976.4 - -
15/01:00am -17.4 -33.4 -21.9 68 - SE 65 74 35 40 976.1 976.2 -
15/12:44am -15.8 -29.7 -22.1 58 - SE 54 72 29 39 976.2 - -
15/12:30am -16.2 -30.5 -22.9 56 - SE 56 69 30 37 976.6 - -
15/12:00am -17.0 -31.9 -22.7 61 - SE 59 70 32 38 976.1 - -
 
Date/Time
EST
Temp
°C
App
Temp
°C
Dew
Point
°C
Rel
Hum
%
Delta-T
°C
Wind Press
QNH
hPa
Press
MSL
hPa
Rain since
9am
mm
Dir  Spd
km/h
Gust
km/h
Spd
kts
Gust
kts
14/11:30pm -17.9 -33.2 -22.7 66 - SE 61 69 33 37 976.2 - -
14/11:00pm -18.2 -35.1 -21.5 75 - SE 70 78 38 42 975.7 - -
14/10:30pm -17.9 -36.4 -21.7 72 - SE 78 87 42 47 975.3 - -
14/10:08pm -17.0 -35.4 -20.8 72 - SE 78 83 42 45 974.8 - -
14/10:04pm -16.5 -31.3 -20.7 70 - SE 59 82 32 44 975.0 - -
14/10:00pm -15.7 -30.0 -21.5 61 - SE 56 65 30 35 975.4 975.5 -
14/09:30pm -17.8 -34.8 -22.6 66 - SE 70 76 38 41 975.0 - -
14/09:00pm -17.2 -32.1 -23.3 59 - ESE 59 69 32 37 974.9 - -
14/08:30pm -15.5 -31.9 -21.5 60 - SE 67 89 36 48 974.4 - -
14/08:26pm -15.1 -30.7 -21.1 60 - SE 63 89 34 48 974.5 - -

Other Formats:

Comma delimited format used in spreadsheet applications
http://www.bom.gov.au/fwo/IDT60803/IDT60803.89564.axf

JavaScript Object Notation format (JSON) in row-major order
http://www.bom.gov.au/fwo/IDT60803/IDT60803.89564.json